createdAt,value
2022-07-27T00:00:44.569Z,81.81
2022-07-27T00:01:51.268Z,82.05
2022-07-27T00:02:53.554Z,82.18
2022-07-27T00:03:55.212Z,82.79
2022-07-27T00:04:56.818Z,82.79
2022-07-27T00:05:58.461Z,82.23
2022-07-27T00:07:00.034Z,81.82
2022-07-27T00:08:01.588Z,82.67
2022-07-27T00:09:03.591Z,82.14
2022-07-27T00:10:05.879Z,82.96
2022-07-27T00:11:10.085Z,84.36
2022-07-27T00:12:11.641Z,83.81
2022-07-27T00:13:13.217Z,84.18
2022-07-27T00:14:14.860Z,84.48
2022-07-27T00:15:16.572Z,83.91
2022-07-27T00:16:18.248Z,83.75
2022-07-27T00:17:23.847Z,83.56
2022-07-27T00:18:25.667Z,83.63
2022-07-27T00:19:27.749Z,83.90
2022-07-27T00:20:31.600Z,84.13
2022-07-27T00:21:33.343Z,83.74
2022-07-27T00:22:34.921Z,84.23
2022-07-27T00:23:36.527Z,83.80
2022-07-27T00:24:38.114Z,84.53
2022-07-27T00:25:39.661Z,84.68
2022-07-27T00:26:41.228Z,83.43
2022-07-27T00:27:42.999Z,82.87
2022-07-27T00:28:44.553Z,82.17
2022-07-27T00:29:46.104Z,81.97
2022-07-27T00:30:47.967Z,81.66
2022-07-27T00:31:49.579Z,82.27
2022-07-27T00:32:52.060Z,81.91
2022-07-27T00:33:53.705Z,81.82
2022-07-27T00:34:55.292Z,82.32
2022-07-27T00:35:56.841Z,82.18
2022-07-27T00:36:58.421Z,81.66
2022-07-27T00:37:59.937Z,81.57
2022-07-27T00:39:01.579Z,81.47
2022-07-27T00:40:04.646Z,83.27
2022-07-27T00:41:06.517Z,82.97
2022-07-27T00:42:08.139Z,83.20
2022-07-27T00:43:09.765Z,83.39
2022-07-27T00:44:12.354Z,83.92
2022-07-27T00:45:14.173Z,83.71
2022-07-27T00:46:15.802Z,83.28
2022-07-27T00:47:17.552Z,82.61
2022-07-27T00:48:19.307Z,83.60
2022-07-27T00:49:21.888Z,83.10
2022-07-27T00:50:23.533Z,84.43
2022-07-27T00:51:25.840Z,84.96
2022-07-27T00:52:30.025Z,82.21
2022-07-27T00:53:31.850Z,82.00
2022-07-27T00:54:33.649Z,83.74
2022-07-27T00:55:35.768Z,81.88
2022-07-27T00:56:37.419Z,82.23
2022-07-27T00:57:53.183Z,82.77
2022-07-27T00:59:11.347Z,82.67
2022-07-27T01:00:14.947Z,83.35
2022-07-27T01:01:19.014Z,83.13
2022-07-27T01:02:22.876Z,81.35
2022-07-27T01:03:29.634Z,79.70
2022-07-27T01:04:31.657Z,80.24
2022-07-27T01:05:36.664Z,78.94
2022-07-27T01:06:39.625Z,79.35
2022-07-27T01:07:42.524Z,78.71
2022-07-27T01:08:44.470Z,79.16
2022-07-27T01:09:58.792Z,78.95
2022-07-27T01:11:02.929Z,79.04
2022-07-27T01:12:07.065Z,78.71
2022-07-27T01:13:12.857Z,78.83
2022-07-27T01:14:16.925Z,79.23
2022-07-27T01:15:18.740Z,80.62
2022-07-27T01:16:21.075Z,78.73
2022-07-27T01:17:22.789Z,78.49
2022-07-27T01:18:38.949Z,78.51
2022-07-27T01:19:40.661Z,78.39
2022-07-27T01:20:42.870Z,79.08
2022-07-27T01:21:44.758Z,81.60
2022-07-27T01:22:46.365Z,80.68
2022-07-27T01:23:47.967Z,81.10
2022-07-27T01:24:50.246Z,80.98
2022-07-27T01:25:51.884Z,82.78
2022-07-27T01:26:53.360Z,82.75
2022-07-27T01:27:54.872Z,82.27
2022-07-27T01:29:01.502Z,81.64
2022-07-27T01:30:24.477Z,82.69
2022-07-27T01:31:26.560Z,81.11
2022-07-27T01:32:28.145Z,81.67
2022-07-27T01:34:04.584Z,82.40
2022-07-27T01:35:06.751Z,82.14
2022-07-27T01:36:08.482Z,82.12
2022-07-27T01:37:10.104Z,82.08
2022-07-27T01:38:13.243Z,81.93
2022-07-27T01:39:16.311Z,82.88
2022-07-27T01:40:17.949Z,83.04
2022-07-27T01:41:19.518Z,83.12
2022-07-27T01:42:21.079Z,82.86
2022-07-27T01:43:23.081Z,83.12
2022-07-27T01:44:24.841Z,83.31
2022-07-27T01:45:26.451Z,84.54
2022-07-27T01:46:28.086Z,84.66
2022-07-27T01:47:29.686Z,84.09
2022-07-27T01:48:31.422Z,84.61
2022-07-27T01:49:33.081Z,84.38
2022-07-27T01:50:34.619Z,85.51
2022-07-27T01:51:36.178Z,85.23
2022-07-27T01:52:39.247Z,84.96
2022-07-27T01:53:41.172Z,85.75
2022-07-27T01:54:42.732Z,85.30
2022-07-27T01:55:44.541Z,85.49
2022-07-27T01:56:46.210Z,85.48
2022-07-27T01:57:49.962Z,87.58
2022-07-27T01:58:51.521Z,87.52
2022-07-27T01:59:53.907Z,86.96
2022-07-27T02:00:55.462Z,86.96
2022-07-27T02:01:57.108Z,86.56
2022-07-27T02:02:58.846Z,86.93
2022-07-27T02:04:00.437Z,87.18
2022-07-27T02:05:02.312Z,87.66
2022-07-27T02:06:04.813Z,87.72
2022-07-27T02:07:06.412Z,87.91
2022-07-27T02:08:08.691Z,87.71
2022-07-27T02:09:10.538Z,87.91
2022-07-27T02:10:12.371Z,88.26
2022-07-27T02:11:32.653Z,88.22
2022-07-27T02:12:37.615Z,88.39
2022-07-27T02:13:39.308Z,88.24
2022-07-27T02:14:40.848Z,88.67
2022-07-27T02:15:43.160Z,89.29
2022-07-27T02:16:46.248Z,90.01
2022-07-27T02:17:49.181Z,90.89
2022-07-27T02:18:52.026Z,91.82
2022-07-27T02:19:56.458Z,91.25
2022-07-27T02:20:58.083Z,90.62
2022-07-27T02:21:59.693Z,90.48
2022-07-27T02:23:01.963Z,90.68
2022-07-27T02:24:03.590Z,90.98
2022-07-27T02:25:06.001Z,91.01
2022-07-27T02:26:08.784Z,92.87
2022-07-27T02:27:10.373Z,92.65
2022-07-27T02:28:12.328Z,91.90
2022-07-27T02:29:14.479Z,91.69
2022-07-27T02:30:17.675Z,91.94
2022-07-27T02:31:19.759Z,91.67
2022-07-27T02:32:21.616Z,92.23
2022-07-27T02:33:23.204Z,92.81
2022-07-27T02:34:25.571Z,92.52
2022-07-27T02:35:27.182Z,93.22
2022-07-27T02:36:31.757Z,93.95
2022-07-27T02:37:33.439Z,93.66
2022-07-27T02:38:34.950Z,94.31
2022-07-27T02:39:36.588Z,94.01
2022-07-27T02:40:38.100Z,94.19
2022-07-27T02:41:39.708Z,94.79
2022-07-27T02:42:41.332Z,95.58
2022-07-27T02:43:42.922Z,95.84
2022-07-27T02:44:44.843Z,95.81
2022-07-27T02:45:46.763Z,95.36
2022-07-27T02:46:48.660Z,96.18
2022-07-27T02:47:50.557Z,96.01
2022-07-27T02:48:52.171Z,95.80
2022-07-27T02:49:53.905Z,95.87
2022-07-27T02:51:00.445Z,95.82
2022-07-27T02:52:02.092Z,95.74
2022-07-27T02:53:03.664Z,95.59
2022-07-27T02:54:05.419Z,95.48
2022-07-27T02:55:08.346Z,95.15
2022-07-27T02:56:10.666Z,95.55
2022-07-27T02:57:12.250Z,95.32
2022-07-27T02:58:14.001Z,95.38
2022-07-27T02:59:15.668Z,95.06
2022-07-27T03:00:17.636Z,96.19
2022-07-27T03:01:19.390Z,95.80
2022-07-27T03:02:21.305Z,95.97
2022-07-27T03:03:22.916Z,96.90
2022-07-27T03:04:34.649Z,96.50
2022-07-27T03:05:36.300Z,96.79
2022-07-27T03:06:38.336Z,96.55
2022-07-27T03:07:39.903Z,97.73
2022-07-27T03:08:42.060Z,96.04
2022-07-27T03:09:43.833Z,96.42
2022-07-27T03:10:48.703Z,96.02
2022-07-27T03:11:50.608Z,95.75
2022-07-27T03:12:52.183Z,95.41
2022-07-27T03:13:53.744Z,95.26
2022-07-27T03:14:57.065Z,95.77
2022-07-27T03:15:58.719Z,96.32
2022-07-27T03:17:00.657Z,95.67
2022-07-27T03:18:02.507Z,95.88
2022-07-27T03:19:04.721Z,96.75
2022-07-27T03:20:08.099Z,96.66
2022-07-27T03:21:13.051Z,96.59
2022-07-27T03:22:14.602Z,97.03
2022-07-27T03:23:18.039Z,97.19
2022-07-27T03:24:19.607Z,97.06
2022-07-27T03:25:21.199Z,97.20
2022-07-27T03:26:22.753Z,98.07
2022-07-27T03:27:24.360Z,97.75
2022-07-27T03:28:25.885Z,97.49
2022-07-27T03:29:29.348Z,98.98
2022-07-27T03:30:32.354Z,99.31
2022-07-27T03:31:34.165Z,99.22
2022-07-27T03:32:35.753Z,98.72
2022-07-27T03:33:37.896Z,98.65
2022-07-27T03:34:39.483Z,99.08
2022-07-27T03:35:41.079Z,98.93
2022-07-27T03:36:43.033Z,98.93
2022-07-27T03:37:44.614Z,98.99
2022-07-27T03:38:46.210Z,99.01
2022-07-27T03:39:48.710Z,99.10
2022-07-27T03:40:50.271Z,100.00
2022-07-27T03:41:51.881Z,100.00
2022-07-27T03:42:53.414Z,99.98
2022-07-27T03:43:54.939Z,100.00
2022-07-27T03:44:56.559Z,100.00
2022-07-27T03:45:58.214Z,100.00
2022-07-27T03:46:59.828Z,100.00
2022-07-27T03:48:01.476Z,100.00
2022-07-27T03:49:03.071Z,100.00
2022-07-27T03:50:16.736Z,100.00
2022-07-27T03:51:18.281Z,100.00
2022-07-27T03:52:20.842Z,100.00
2022-07-27T03:53:22.598Z,100.00
2022-07-27T03:54:24.454Z,100.00
2022-07-27T03:55:26.166Z,100.00
2022-07-27T03:56:27.771Z,100.00
2022-07-27T03:57:29.387Z,100.00
2022-07-27T03:58:31.184Z,100.00
2022-07-27T03:59:32.723Z,100.00
2022-07-27T04:00:34.327Z,100.00
2022-07-27T04:01:36.010Z,100.00
2022-07-27T04:02:37.976Z,100.00
2022-07-27T04:03:44.087Z,100.00
2022-07-27T04:04:46.025Z,100.00
2022-07-27T04:05:47.702Z,100.00
2022-07-27T04:06:49.308Z,100.00
2022-07-27T04:07:55.015Z,100.00
2022-07-27T04:09:07.028Z,100.00
2022-07-27T04:10:15.612Z,100.00
2022-07-27T04:11:17.697Z,100.00
2022-07-27T04:12:20.480Z,100.00
2022-07-27T04:13:22.890Z,100.00
2022-07-27T04:14:24.566Z,100.00
2022-07-27T04:15:26.279Z,100.00
2022-07-27T04:16:30.722Z,100.00
2022-07-27T04:17:55.051Z,99.70
2022-07-27T04:18:56.060Z,100.00
2022-07-27T04:19:57.632Z,99.55
2022-07-27T04:21:01.898Z,99.46
2022-07-27T04:22:04.092Z,99.12
2022-07-27T04:23:05.633Z,99.57
2022-07-27T04:24:07.392Z,99.48
2022-07-27T04:25:09.409Z,98.64
2022-07-27T04:26:11.020Z,98.30
2022-07-27T04:27:13.200Z,98.42
2022-07-27T04:28:14.791Z,99.00
2022-07-27T04:29:20.580Z,98.75
2022-07-27T04:30:23.385Z,98.75
2022-07-27T04:31:25.359Z,97.24
2022-07-27T04:32:26.947Z,97.20
2022-07-27T04:33:28.514Z,96.67
2022-07-27T04:34:30.125Z,96.77
2022-07-27T04:35:31.690Z,97.02
2022-07-27T04:36:33.283Z,96.71
2022-07-27T04:37:35.367Z,97.06
2022-07-27T04:38:37.067Z,97.31
2022-07-27T04:39:38.956Z,98.02
2022-07-27T04:40:40.508Z,97.50
2022-07-27T04:41:42.414Z,95.53
2022-07-27T04:42:49.544Z,95.83
2022-07-27T04:43:52.691Z,95.37
2022-07-27T04:44:54.260Z,95.93
2022-07-27T04:45:55.880Z,95.05
2022-07-27T04:46:57.468Z,96.17
2022-07-27T04:47:59.064Z,95.70
2022-07-27T04:49:01.115Z,95.20
2022-07-27T04:50:02.865Z,94.41
2022-07-27T04:51:04.647Z,93.71
2022-07-27T04:52:06.222Z,93.21
2022-07-27T04:53:08.305Z,92.95
2022-07-27T04:54:10.051Z,92.98
2022-07-27T04:55:11.914Z,92.40
2022-07-27T04:56:13.671Z,92.89
2022-07-27T04:57:15.705Z,91.97
2022-07-27T04:58:17.510Z,91.41
2022-07-27T04:59:19.102Z,91.17
2022-07-27T05:00:20.668Z,90.63
2022-07-27T05:01:26.674Z,89.02
2022-07-27T05:02:31.575Z,89.21
2022-07-27T05:03:33.161Z,88.76
2022-07-27T05:04:34.726Z,89.32
2022-07-27T05:05:36.976Z,89.61
2022-07-27T05:06:38.545Z,88.51
2022-07-27T05:07:40.077Z,87.18
2022-07-27T05:08:41.712Z,87.45
2022-07-27T05:09:43.382Z,86.94
2022-07-27T05:10:45.309Z,86.98
2022-07-27T05:11:51.150Z,86.75
2022-07-27T05:12:53.894Z,86.69
2022-07-27T05:13:55.590Z,86.67
2022-07-27T05:14:57.252Z,86.34
2022-07-27T05:15:58.913Z,85.19
2022-07-27T05:17:00.611Z,84.88
2022-07-27T05:18:02.248Z,84.15
2022-07-27T05:19:03.842Z,84.38
2022-07-27T05:20:05.941Z,84.25
2022-07-27T05:21:08.367Z,84.00
2022-07-27T05:22:10.576Z,84.67
2022-07-27T05:23:12.178Z,83.39
2022-07-27T05:24:13.931Z,82.36
2022-07-27T05:25:15.596Z,81.97
2022-07-27T05:26:17.312Z,82.59
2022-07-27T05:27:18.999Z,82.23
2022-07-27T05:28:20.584Z,82.33
2022-07-27T05:29:22.161Z,83.04
2022-07-27T05:30:25.388Z,82.55
2022-07-27T05:31:26.991Z,81.53
2022-07-27T05:32:29.217Z,81.17
2022-07-27T05:33:30.931Z,80.82
2022-07-27T05:34:32.516Z,81.02
2022-07-27T05:35:34.548Z,80.39
2022-07-27T05:36:36.391Z,79.18
2022-07-27T05:37:37.960Z,78.61
2022-07-27T05:38:40.200Z,77.78
2022-07-27T05:39:42.327Z,78.65
2022-07-27T05:40:45.693Z,77.78
2022-07-27T05:41:47.308Z,78.22
2022-07-27T05:42:51.273Z,78.48
2022-07-27T05:43:54.595Z,78.36
2022-07-27T05:44:56.485Z,77.92
2022-07-27T05:45:58.149Z,78.30
2022-07-27T05:46:59.827Z,80.84
2022-07-27T05:48:01.817Z,78.78
2022-07-27T05:49:03.966Z,77.99
2022-07-27T05:50:06.121Z,78.29
2022-07-27T05:51:08.346Z,78.34
2022-07-27T05:52:09.987Z,77.92
2022-07-27T05:53:12.942Z,77.65
2022-07-27T05:54:14.652Z,77.09
2022-07-27T05:55:16.341Z,77.18
2022-07-27T05:56:17.920Z,76.04
2022-07-27T05:57:19.556Z,74.18
2022-07-27T05:58:21.242Z,74.12
2022-07-27T05:59:26.441Z,74.44
2022-07-27T06:00:28.019Z,74.94
2022-07-27T06:01:29.641Z,75.09
2022-07-27T06:02:31.676Z,74.51
2022-07-27T06:03:33.572Z,74.59
2022-07-27T06:04:35.866Z,75.25
2022-07-27T06:05:37.539Z,74.38
2022-07-27T06:06:57.720Z,73.96
2022-07-27T06:07:59.342Z,75.35
2022-07-27T06:09:00.948Z,74.53
2022-07-27T06:10:03.259Z,75.02
2022-07-27T06:11:04.920Z,74.54
2022-07-27T06:12:06.855Z,73.93
2022-07-27T06:13:10.365Z,74.13
2022-07-27T06:14:11.978Z,74.96
2022-07-27T06:15:14.893Z,74.39
2022-07-27T06:16:16.995Z,73.30
2022-07-27T06:17:18.793Z,74.10
2022-07-27T06:18:20.356Z,73.19
2022-07-27T06:19:21.991Z,71.93
2022-07-27T06:20:24.423Z,71.83
2022-07-27T06:21:28.092Z,70.53
2022-07-27T06:22:29.950Z,69.57
2022-07-27T06:23:31.830Z,70.22
2022-07-27T06:24:33.953Z,69.93
2022-07-27T06:25:36.171Z,70.50
2022-07-27T06:26:38.025Z,70.95
2022-07-27T06:27:39.680Z,70.39
2022-07-27T06:28:41.343Z,69.47
2022-07-27T06:29:43.096Z,68.67
2022-07-27T06:30:45.872Z,68.85
2022-07-27T06:31:47.602Z,68.54
2022-07-27T06:32:49.392Z,67.37
2022-07-27T06:33:52.379Z,67.34
2022-07-27T06:34:54.033Z,67.42
2022-07-27T06:35:58.250Z,66.98
2022-07-27T06:37:00.171Z,67.63
2022-07-27T06:38:02.813Z,68.66
2022-07-27T06:39:04.453Z,69.51
2022-07-27T06:40:06.651Z,69.02
2022-07-27T06:41:08.288Z,69.53
2022-07-27T06:42:09.914Z,68.75
2022-07-27T06:43:11.499Z,67.58
2022-07-27T06:44:13.115Z,66.71
2022-07-27T06:45:14.775Z,67.65
2022-07-27T06:46:16.838Z,69.22
2022-07-27T06:47:18.466Z,68.81
2022-07-27T06:48:21.241Z,69.18
2022-07-27T06:49:22.829Z,68.81
2022-07-27T06:50:25.065Z,68.40
2022-07-27T06:51:26.719Z,67.98
2022-07-27T06:52:28.517Z,67.93
2022-07-27T06:53:36.177Z,67.78
2022-07-27T06:54:38.851Z,68.14
2022-07-27T06:55:41.252Z,69.39
2022-07-27T06:56:42.903Z,68.28
2022-07-27T06:57:46.285Z,66.77
2022-07-27T06:58:49.153Z,67.55
2022-07-27T06:59:50.876Z,67.48
2022-07-27T07:00:52.487Z,67.56
2022-07-27T07:01:54.089Z,67.17
2022-07-27T07:03:00.728Z,67.36
2022-07-27T07:04:02.766Z,67.40
2022-07-27T07:05:04.861Z,67.59
2022-07-27T07:06:06.477Z,68.07
2022-07-27T07:07:08.390Z,68.33
2022-07-27T07:08:11.981Z,67.80
2022-07-27T07:09:13.910Z,67.93
2022-07-27T07:10:16.175Z,68.10
2022-07-27T07:11:17.841Z,67.84
2022-07-27T07:12:19.551Z,67.83
2022-07-27T07:13:21.242Z,68.08
2022-07-27T07:14:23.715Z,68.52
2022-07-27T07:15:26.594Z,67.94
2022-07-27T07:16:28.383Z,67.61
2022-07-27T07:17:30.008Z,66.90
2022-07-27T07:18:31.726Z,66.49
2022-07-27T07:19:33.994Z,65.99
2022-07-27T07:20:37.173Z,66.97
2022-07-27T07:21:38.740Z,66.01
2022-07-27T07:22:40.321Z,66.13
2022-07-27T07:23:42.156Z,65.44
2022-07-27T07:24:43.722Z,65.28
2022-07-27T07:25:45.281Z,65.69
2022-07-27T07:26:46.871Z,65.05
2022-07-27T07:27:49.241Z,65.05
2022-07-27T07:28:50.832Z,65.52
2022-07-27T07:29:52.968Z,65.92
2022-07-27T07:30:54.594Z,66.37
2022-07-27T07:31:56.288Z,67.57
2022-07-27T07:32:58.177Z,66.96
2022-07-27T07:34:00.050Z,67.02
2022-07-27T07:35:03.919Z,66.53
2022-07-27T07:36:12.106Z,67.11
2022-07-27T07:37:17.681Z,67.88
2022-07-27T07:38:19.523Z,67.58
2022-07-27T07:39:21.387Z,67.59
2022-07-27T07:40:42.622Z,66.75
2022-07-27T07:41:44.619Z,67.29
2022-07-27T07:42:55.391Z,65.26
2022-07-27T07:43:56.961Z,66.07
2022-07-27T07:44:58.680Z,65.89
2022-07-27T07:46:00.256Z,65.92
2022-07-27T07:47:01.874Z,64.77
2022-07-27T07:48:05.580Z,64.31
2022-07-27T07:49:07.233Z,63.76
2022-07-27T07:50:09.287Z,62.55
2022-07-27T07:51:11.710Z,60.30
2022-07-27T07:52:13.529Z,58.78
2022-07-27T07:53:15.475Z,56.84
2022-07-27T07:54:17.420Z,54.88
2022-07-27T07:55:23.846Z,53.01
2022-07-27T07:56:25.457Z,52.16
2022-07-27T07:57:27.077Z,50.39
2022-07-27T07:58:28.760Z,49.70
2022-07-27T07:59:30.321Z,49.42
2022-07-27T08:00:32.215Z,48.34
2022-07-27T08:01:33.948Z,48.96
2022-07-27T08:02:53.317Z,47.55
2022-07-27T08:03:55.253Z,47.58
2022-07-27T08:04:56.799Z,47.84
2022-07-27T08:05:58.453Z,47.80
2022-07-27T08:07:00.108Z,46.29
2022-07-27T08:08:01.683Z,45.92
2022-07-27T08:09:03.376Z,45.85
2022-07-27T08:10:07.767Z,46.59
2022-07-27T08:11:09.400Z,46.53
2022-07-27T08:12:11.031Z,46.75
2022-07-27T08:13:12.657Z,46.12
2022-07-27T08:14:14.235Z,45.39
2022-07-27T08:15:17.561Z,45.78
2022-07-27T08:16:19.251Z,45.68
2022-07-27T08:17:20.912Z,44.33
2022-07-27T08:18:22.619Z,44.15
2022-07-27T08:19:24.561Z,44.09
2022-07-27T08:20:28.235Z,43.59
2022-07-27T08:21:31.642Z,42.17
2022-07-27T08:22:37.476Z,42.71
2022-07-27T08:23:39.125Z,43.44
2022-07-27T08:24:40.667Z,43.74
2022-07-27T08:25:42.635Z,44.33
2022-07-27T08:26:44.247Z,43.18
2022-07-27T08:27:47.398Z,41.72
2022-07-27T08:28:59.398Z,40.58
2022-07-27T08:30:23.234Z,39.44
2022-07-27T08:31:52.104Z,39.73
2022-07-27T08:33:01.281Z,38.29
2022-07-27T08:34:07.013Z,38.73
2022-07-27T08:35:08.834Z,37.40
2022-07-27T08:36:10.449Z,36.58
2022-07-27T08:37:15.396Z,40.05
2022-07-27T08:38:17.614Z,40.59
2022-07-27T08:40:05.419Z,40.01
2022-07-27T08:40:44.869Z,42.48
2022-07-27T08:41:47.886Z,44.06
2022-07-27T08:42:49.584Z,42.20
2022-07-27T08:43:54.411Z,44.37
2022-07-27T08:44:56.186Z,43.05
2022-07-27T08:45:59.971Z,44.68
2022-07-27T08:47:02.981Z,42.30
2022-07-27T08:48:05.809Z,43.41
2022-07-27T08:49:08.824Z,41.91
2022-07-27T08:50:32.248Z,43.91
2022-07-27T08:51:34.560Z,43.24
2022-07-27T08:52:36.347Z,41.53
2022-07-27T08:53:53.196Z,42.31
2022-07-27T08:54:55.501Z,41.73
2022-07-27T08:55:57.620Z,42.34
2022-07-27T08:56:59.252Z,42.86
2022-07-27T08:58:03.431Z,44.37
2022-07-27T08:59:05.425Z,43.47
2022-07-27T09:00:07.789Z,43.47
2022-07-27T09:01:09.437Z,43.89
2022-07-27T09:02:14.030Z,43.70
2022-07-27T09:03:20.109Z,44.57
2022-07-27T09:04:22.662Z,43.16
2022-07-27T09:05:24.398Z,43.18
2022-07-27T09:06:42.706Z,45.44
2022-07-27T09:07:44.654Z,46.16
2022-07-27T09:08:59.183Z,45.37
2022-07-27T09:10:01.327Z,46.63
2022-07-27T09:11:13.415Z,46.44
2022-07-27T09:12:15.010Z,44.37
2022-07-27T09:13:22.053Z,43.15
2022-07-27T09:14:31.270Z,42.38
2022-07-27T09:15:34.703Z,41.53
2022-07-27T09:17:14.787Z,40.18
2022-07-27T09:17:58.439Z,38.57
2022-07-27T09:19:05.766Z,38.35
2022-07-27T09:20:17.352Z,37.58
2022-07-27T09:21:23.160Z,36.69
2022-07-27T09:22:56.240Z,35.15
2022-07-27T09:24:29.349Z,36.57
2022-07-27T09:27:03.637Z,41.00
2022-07-27T09:28:05.364Z,41.30
2022-07-27T09:29:09.975Z,42.63
2022-07-27T09:30:14.507Z,42.70
2022-07-27T09:31:16.619Z,43.28
2022-07-27T09:32:18.216Z,45.09
2022-07-27T09:33:19.839Z,45.28
2022-07-27T09:34:31.136Z,46.22
2022-07-27T09:35:38.611Z,44.37
2022-07-27T09:36:52.253Z,41.74
2022-07-27T09:37:53.874Z,41.34
2022-07-27T09:39:06.807Z,41.44
2022-07-27T09:40:14.045Z,41.13
2022-07-27T09:41:16.784Z,40.70
2022-07-27T09:43:03.812Z,39.89
2022-07-27T09:44:29.692Z,39.36
2022-07-27T09:45:34.002Z,38.89
2022-07-27T09:46:39.071Z,37.31
2022-07-27T09:47:40.842Z,37.22
2022-07-27T09:48:42.915Z,37.92
2022-07-27T09:49:44.547Z,36.72
2022-07-27T09:51:02.240Z,37.57
2022-07-27T09:52:05.498Z,36.68
2022-07-27T09:53:41.845Z,35.35
2022-07-27T09:54:47.002Z,35.10
2022-07-27T09:56:13.278Z,34.78
2022-07-27T09:57:15.194Z,35.48
2022-07-27T09:58:16.968Z,35.23
2022-07-27T09:59:19.327Z,36.28
2022-07-27T10:00:21.597Z,35.74
2022-07-27T10:01:31.072Z,35.23
2022-07-27T10:02:32.887Z,34.94
2022-07-27T10:03:34.552Z,35.21
2022-07-27T10:04:36.493Z,35.50
2022-07-27T10:05:38.172Z,36.32
2022-07-27T10:07:01.206Z,35.69
2022-07-27T10:08:01.632Z,35.48
2022-07-27T10:09:03.535Z,35.95
2022-07-27T10:10:05.848Z,34.10
2022-07-27T10:11:07.757Z,32.58
2022-07-27T10:12:09.721Z,34.23
2022-07-27T10:13:11.436Z,35.27
2022-07-27T10:14:13.526Z,34.14
2022-07-27T10:15:15.512Z,33.49
2022-07-27T10:16:24.164Z,31.81
2022-07-27T10:17:26.926Z,31.15
2022-07-27T10:18:50.745Z,31.92
2022-07-27T10:19:58.175Z,31.30
2022-07-27T10:21:07.640Z,30.54
2022-07-27T10:22:09.267Z,30.46
2022-07-27T10:23:28.443Z,30.14
2022-07-27T10:24:36.206Z,30.84
2022-07-27T10:25:43.772Z,29.68
2022-07-27T10:26:45.419Z,29.78
2022-07-27T10:28:17.524Z,31.97
2022-07-27T10:29:21.354Z,34.15
2022-07-27T10:30:27.996Z,35.08
2022-07-27T10:31:35.444Z,36.76
2022-07-27T10:32:37.764Z,37.85
2022-07-27T10:33:44.215Z,39.49
2022-07-27T10:34:45.816Z,39.49
2022-07-27T10:35:47.553Z,40.30
2022-07-27T10:36:53.611Z,40.00
2022-07-27T10:38:18.095Z,41.52
2022-07-27T10:39:30.150Z,41.91
2022-07-27T10:40:34.468Z,41.97
2022-07-27T10:41:43.807Z,42.45
2022-07-27T10:42:51.877Z,44.74
2022-07-27T10:44:29.171Z,43.85
2022-07-27T10:46:00.034Z,43.34
2022-07-27T10:47:04.565Z,42.18
2022-07-27T10:48:06.310Z,41.92
2022-07-27T10:49:19.161Z,41.66
2022-07-27T10:50:27.088Z,41.42
2022-07-27T10:51:35.218Z,41.96
2022-07-27T10:52:50.704Z,41.22
2022-07-27T10:55:32.216Z,40.75
2022-07-27T10:56:48.299Z,39.39
2022-07-27T10:57:49.865Z,40.30
2022-07-27T10:58:51.880Z,37.35
2022-07-27T11:00:13.357Z,36.57
2022-07-27T11:01:16.074Z,35.88
2022-07-27T11:02:18.741Z,36.91
2022-07-27T11:03:33.054Z,38.03
2022-07-27T11:04:43.134Z,39.65
2022-07-27T11:06:30.791Z,39.02
2022-07-27T11:07:38.299Z,40.47
2022-07-27T11:08:52.255Z,40.88
2022-07-27T11:10:05.148Z,40.54
2022-07-27T11:11:09.644Z,39.71
2022-07-27T11:12:13.926Z,39.49
2022-07-27T11:18:15.136Z,40.33
2022-07-27T11:19:17.960Z,40.81
2022-07-27T11:20:23.966Z,39.87
2022-07-27T11:21:27.299Z,40.17
2022-07-27T11:22:53.676Z,41.49
2022-07-27T11:23:55.420Z,40.67
2022-07-27T11:24:57.003Z,40.97
2022-07-27T11:26:00.240Z,40.13
2022-07-27T11:27:17.678Z,40.30
2022-07-27T11:28:28.361Z,39.29
2022-07-27T11:29:40.152Z,39.14
2022-07-27T11:30:45.701Z,37.46
2022-07-27T11:31:56.509Z,39.01
2022-07-27T11:33:04.925Z,38.67
2022-07-27T11:34:07.647Z,38.07
2022-07-27T11:35:19.543Z,38.82
2022-07-27T11:36:22.609Z,37.92
2022-07-27T11:37:24.536Z,38.17
2022-07-27T11:38:27.047Z,38.23
2022-07-27T11:40:56.827Z,37.73
2022-07-27T11:42:11.792Z,36.06
2022-07-27T11:43:33.952Z,35.92
2022-07-27T11:44:38.576Z,36.11
2022-07-27T11:45:43.026Z,36.91
2022-07-27T11:46:47.127Z,37.08
2022-07-27T11:47:56.983Z,37.32
2022-07-27T11:49:10.043Z,35.74
2022-07-27T11:50:13.751Z,36.99
2022-07-27T11:51:17.189Z,37.12
2022-07-27T11:52:18.934Z,37.77
2022-07-27T11:53:20.852Z,36.62
2022-07-27T11:54:26.786Z,34.80
2022-07-27T11:55:28.518Z,36.74
2022-07-27T11:56:33.511Z,37.46
2022-07-27T11:57:36.091Z,36.55
2022-07-27T11:59:27.738Z,36.20
2022-07-27T12:00:42.572Z,36.93
2022-07-27T12:01:55.445Z,37.70
2022-07-27T12:02:57.226Z,37.65
2022-07-27T12:04:10.299Z,36.74
2022-07-27T12:05:12.010Z,38.80
2022-07-27T12:06:13.747Z,38.31
2022-07-27T12:07:22.021Z,38.53
2022-07-27T12:08:24.343Z,39.45
2022-07-27T12:09:27.074Z,40.48
2022-07-27T12:10:34.486Z,39.95
2022-07-27T12:12:02.162Z,40.70
2022-07-27T12:13:03.803Z,40.75
2022-07-27T12:14:12.415Z,40.64
2022-07-27T12:16:40.525Z,41.50
2022-07-27T12:17:47.266Z,40.79
2022-07-27T12:18:48.967Z,40.20
2022-07-27T12:19:52.021Z,40.30
2022-07-27T12:20:53.684Z,41.21
2022-07-27T12:21:55.379Z,39.61
2022-07-27T12:23:05.106Z,41.13
2022-07-27T12:24:07.192Z,41.04
2022-07-27T12:25:17.799Z,42.50
2022-07-27T12:26:21.311Z,42.27
2022-07-27T12:27:23.852Z,42.56
2022-07-27T12:28:25.625Z,42.51
2022-07-27T12:29:27.438Z,42.91
2022-07-27T12:30:38.041Z,41.75
2022-07-27T12:31:48.672Z,41.33
2022-07-27T12:32:54.064Z,40.54
2022-07-27T12:34:05.650Z,39.57
2022-07-27T12:35:47.342Z,37.23
2022-07-27T12:36:48.983Z,34.67
2022-07-27T12:38:08.257Z,35.38
2022-07-27T12:39:26.679Z,33.37
2022-07-27T12:40:30.028Z,32.68
2022-07-27T12:41:36.602Z,33.59
2022-07-27T12:42:38.173Z,32.53
2022-07-27T12:43:40.020Z,32.96
2022-07-27T12:44:44.935Z,33.46
2022-07-27T12:45:48.678Z,34.62
2022-07-27T12:47:27.798Z,34.77
2022-07-27T12:48:38.769Z,34.56
2022-07-27T12:49:46.126Z,34.35
2022-07-27T12:50:58.461Z,33.51
2022-07-27T12:52:10.445Z,32.52
2022-07-27T12:53:14.404Z,31.57
2022-07-27T12:54:16.125Z,32.31
2022-07-27T12:55:20.009Z,31.27
2022-07-27T12:56:27.005Z,31.69
2022-07-27T12:57:54.193Z,31.71
2022-07-27T12:59:04.515Z,31.84
2022-07-27T13:00:10.461Z,30.86
2022-07-27T13:01:12.287Z,32.05
2022-07-27T13:02:17.556Z,30.84
2022-07-27T13:03:19.316Z,30.99
2022-07-27T13:04:20.983Z,31.39
2022-07-27T13:05:22.656Z,32.15
2022-07-27T13:06:24.286Z,33.48
2022-07-27T13:07:26.079Z,33.67
2022-07-27T13:08:27.792Z,34.09
2022-07-27T13:10:02.876Z,34.88
2022-07-27T13:10:54.030Z,36.18
2022-07-27T13:12:00.016Z,36.39
2022-07-27T13:13:03.205Z,36.68
2022-07-27T13:14:04.896Z,37.61
2022-07-27T13:15:08.482Z,37.10
2022-07-27T13:16:10.122Z,37.55
2022-07-27T13:17:11.854Z,37.72
2022-07-27T13:18:13.571Z,38.15
2022-07-27T13:19:15.926Z,37.54
2022-07-27T13:20:18.305Z,37.05
2022-07-27T13:21:19.913Z,37.81
2022-07-27T13:22:21.549Z,35.31
2022-07-27T13:23:23.174Z,34.41
2022-07-27T13:24:24.906Z,33.50
2022-07-27T13:25:26.571Z,34.29
2022-07-27T13:26:28.271Z,33.59
2022-07-27T13:27:30.157Z,33.46
2022-07-27T13:28:31.763Z,33.83
2022-07-27T13:29:33.646Z,33.96
2022-07-27T13:30:35.608Z,33.72
2022-07-27T13:31:37.279Z,35.13
2022-07-27T13:32:39.989Z,35.57
2022-07-27T13:33:41.626Z,34.79
2022-07-27T13:34:43.287Z,33.11
2022-07-27T13:35:45.792Z,33.09
2022-07-27T13:36:48.659Z,35.15
2022-07-27T13:37:50.208Z,33.95
2022-07-27T13:38:51.839Z,33.18
2022-07-27T13:39:54.182Z,33.30
2022-07-27T13:40:56.131Z,32.99
2022-07-27T13:41:57.716Z,33.28
2022-07-27T13:42:59.408Z,32.80
2022-07-27T13:44:01.234Z,32.29
2022-07-27T13:45:09.218Z,31.00
2022-07-27T13:46:11.417Z,32.35
2022-07-27T13:47:13.343Z,30.74
2022-07-27T13:48:16.140Z,31.99
2022-07-27T13:49:18.473Z,30.91
2022-07-27T13:50:20.399Z,32.01
2022-07-27T13:51:21.956Z,31.58
2022-07-27T13:52:24.189Z,32.08
2022-07-27T13:53:26.305Z,31.67
2022-07-27T13:54:27.988Z,32.51
2022-07-27T13:55:29.630Z,32.18
2022-07-27T13:56:32.541Z,32.80
2022-07-27T13:57:34.147Z,33.70
2022-07-27T13:58:35.752Z,33.53
2022-07-27T13:59:37.727Z,31.73